Time;durP1;ratioP1;P1;durP2;ratioP2;P2;SDS_P1;SDS_P2;PMS_P1;PMS_P2;Temp;Humidity;BMP_temperature;BMP_pressure;BME280_temperature;BME280_humidity;BME280_pressure;Samples;Min_cycle;Max_cycle;Signal;HPM_P1;HPM_P2
2023/06/10 00:00:42;;;;;;;8.35;4.65;;;;;;;;;;4971255;28;20087;-66
2023/06/10 00:03:09;;;;;;;10.48;5.18;;;;;;;;;;4954155;28;20051;-66
2023/06/10 00:05:35;;;;;;;9.02;4.68;;;;;;;;;;4970969;28;20038;-66
2023/06/10 00:08:07;;;;;;;9.00;4.60;;;;;;;;;;4971632;28;20220;-66
2023/06/10 00:10:37;;;;;;;11.45;4.88;;;;;;;;;;4971416;28;20051;-66
2023/06/10 00:13:10;;;;;;;6.80;4.47;;;;;;;;;;4971267;28;20034;-66
2023/06/10 00:15:37;;;;;;;10.48;4.50;;;;;;;;;;4953708;28;20047;-66
2023/06/10 00:18:03;;;;;;;7.88;4.10;;;;;;;;;;4971946;28;20122;-66
2023/06/10 00:20:30;;;;;;;10.52;5.00;;;;;;;;;;4954010;28;20053;-66
2023/06/10 00:22:56;;;;;;;9.70;4.53;;;;;;;;;;4970302;28;20043;-66
2023/06/10 00:25:23;;;;;;;12.20;5.53;;;;;;;;;;4953803;28;20053;-66
2023/06/10 00:27:49;;;;;;;9.30;5.32;;;;;;;;;;4953713;28;20500;-66
2023/06/10 00:30:15;;;;;;;10.70;5.03;;;;;;;;;;4971426;28;20046;-66
2023/06/10 00:32:41;;;;;;;11.93;5.10;;;;;;;;;;4953042;28;20061;-67
2023/06/10 00:35:07;;;;;;;9.70;4.88;;;;;;;;;;4971145;28;20045;-67
2023/06/10 00:37:37;;;;;;;9.23;5.05;;;;;;;;;;4953544;28;20047;-66
2023/06/10 00:40:04;;;;;;;8.48;4.75;;;;;;;;;;4947411;28;20042;-66
2023/06/10 00:42:30;;;;;;;10.93;4.90;;;;;;;;;;4970904;28;20119;-66
2023/06/10 00:44:56;;;;;;;10.13;5.40;;;;;;;;;;4970902;28;20047;-66
2023/06/10 00:47:22;;;;;;;9.40;4.95;;;;;;;;;;4971168;28;20057;-66
2023/06/10 00:49:49;;;;;;;9.25;4.70;;;;;;;;;;4970724;28;20046;-66
2023/06/10 00:52:16;;;;;;;9.20;4.38;;;;;;;;;;4952899;28;20133;-66
2023/06/10 00:54:42;;;;;;;9.88;4.72;;;;;;;;;;4967766;28;20416;-66
2023/06/10 00:57:08;;;;;;;9.90;4.55;;;;;;;;;;4950176;28;20046;-66
2023/06/10 00:59:35;;;;;;;8.07;5.03;;;;;;;;;;4937153;28;20080;-66
2023/06/10 01:02:02;;;;;;;9.43;4.97;;;;;;;;;;4953052;28;20137;-67
2023/06/10 01:04:28;;;;;;;9.40;4.60;;;;;;;;;;4970815;28;20452;-66
2023/06/10 01:07:06;;;;;;;9.90;4.90;;;;;;;;;;4953121;28;20190;-66
2023/06/10 01:09:35;;;;;;;9.60;4.60;;;;;;;;;;4970524;28;20050;-67
2023/06/10 01:12:08;;;;;;;7.95;4.97;;;;;;;;;;4970427;28;20047;-66
2023/06/10 01:14:34;;;;;;;12.07;5.32;;;;;;;;;;4967622;28;20038;-66
2023/06/10 01:17:00;;;;;;;10.57;5.75;;;;;;;;;;4970909;28;20074;-66
2023/06/10 01:19:26;;;;;;;11.25;5.20;;;;;;;;;;4970444;28;20423;-66
2023/06/10 01:21:54;;;;;;;10.48;4.78;;;;;;;;;;4970088;28;20098;-66
2023/06/10 01:24:21;;;;;;;9.48;5.50;;;;;;;;;;4953387;28;20050;-66
2023/06/10 01:26:50;;;;;;;8.90;5.00;;;;;;;;;;4953027;28;20053;-66
2023/06/10 01:29:37;;;;;;;7.85;4.65;;;;;;;;;;4953029;28;20512;-66
2023/06/10 01:32:06;;;;;;;8.82;4.70;;;;;;;;;;4946011;28;20055;-66
2023/06/10 01:34:33;;;;;;;13.07;5.45;;;;;;;;;;4936628;28;20047;-66
2023/06/10 01:36:59;;;;;;;9.15;5.25;;;;;;;;;;4970706;28;20497;-67
2023/06/10 01:39:26;;;;;;;10.60;5.50;;;;;;;;;;4953183;28;20043;-67
2023/06/10 01:41:53;;;;;;;8.57;4.30;;;;;;;;;;4970284;28;20665;-67
2023/06/10 01:44:19;;;;;;;11.15;5.50;;;;;;;;;;4970165;28;20145;-67
2023/06/10 01:46:46;;;;;;;10.38;5.32;;;;;;;;;;4969823;28;20508;-67
2023/06/10 01:49:12;;;;;;;8.70;5.07;;;;;;;;;;4970763;28;20046;-67
2023/06/10 01:51:38;;;;;;;10.32;5.22;;;;;;;;;;4970416;28;20039;-67
2023/06/10 01:54:05;;;;;;;11.40;5.05;;;;;;;;;;4952526;28;20054;-67
2023/06/10 01:56:31;;;;;;;11.20;5.13;;;;;;;;;;4970723;28;20038;-67
2023/06/10 01:58:59;;;;;;;11.25;6.13;;;;;;;;;;4969715;28;20118;-67
2023/06/10 02:01:28;;;;;;;8.68;4.90;;;;;;;;;;4953034;28;20046;-67
2023/06/10 02:03:54;;;;;;;9.40;5.03;;;;;;;;;;4969927;28;20038;-67
2023/06/10 02:06:20;;;;;;;10.68;4.97;;;;;;;;;;4974319;28;20039;-67
2023/06/10 02:08:47;;;;;;;11.05;5.88;;;;;;;;;;4973548;28;20054;-67
2023/06/10 02:11:12;;;;;;;10.63;5.40;;;;;;;;;;4956754;28;20408;-67
2023/06/10 02:13:39;;;;;;;10.30;5.43;;;;;;;;;;4955743;28;20051;-67
2023/06/10 02:16:05;;;;;;;9.90;4.90;;;;;;;;;;4972929;28;20043;-67
2023/06/10 02:18:31;;;;;;;10.00;5.50;;;;;;;;;;4971140;28;20500;-67
2023/06/10 02:20:57;;;;;;;10.70;5.97;;;;;;;;;;4972969;28;20039;-67
2023/06/10 02:23:23;;;;;;;10.05;5.75;;;;;;;;;;4972959;28;20053;-67
2023/06/10 02:25:50;;;;;;;9.82;5.60;;;;;;;;;;4973101;28;20456;-67
2023/06/10 02:28:16;;;;;;;10.77;5.30;;;;;;;;;;4973785;28;20042;-67
2023/06/10 02:30:42;;;;;;;11.07;5.28;;;;;;;;;;4973343;28;20104;-67
2023/06/10 02:33:11;;;;;;;8.30;5.03;;;;;;;;;;4973070;28;20094;-67
2023/06/10 02:35:38;;;;;;;10.15;5.03;;;;;;;;;;4972814;28;20101;-67
2023/06/10 02:38:04;;;;;;;9.65;5.85;;;;;;;;;;4973781;28;20042;-67
2023/06/10 02:40:30;;;;;;;10.40;5.47;;;;;;;;;;4956023;28;20138;-67
2023/06/10 02:42:57;;;;;;;9.40;4.95;;;;;;;;;;4955493;28;20047;-67
2023/06/10 02:45:23;;;;;;;13.00;6.43;;;;;;;;;;4956274;28;20050;-67
2023/06/10 02:47:49;;;;;;;8.95;5.07;;;;;;;;;;4973399;28;20042;-67
2023/06/10 02:50:15;;;;;;;11.82;5.63;;;;;;;;;;4973538;28;20121;-67
2023/06/10 02:52:42;;;;;;;12.40;5.38;;;;;;;;;;4972141;28;20045;-67
2023/06/10 02:55:08;;;;;;;9.65;5.03;;;;;;;;;;4973235;28;20046;-67
2023/06/10 02:57:34;;;;;;;8.93;4.70;;;;;;;;;;4973351;28;20059;-67
2023/06/10 03:00:01;;;;;;;12.18;5.45;;;;;;;;;;4955878;28;20574;-67
2023/06/10 03:02:28;;;;;;;11.00;6.25;;;;;;;;;;4952454;28;20057;-67
2023/06/10 03:04:55;;;;;;;9.07;5.57;;;;;;;;;;4951394;28;20034;-67
2023/06/10 03:07:23;;;;;;;11.98;5.60;;;;;;;;;;4952259;28;20150;-67
2023/06/10 03:09:49;;;;;;;9.75;5.20;;;;;;;;;;4953618;28;20054;-67
2023/06/10 03:12:15;;;;;;;8.23;5.07;;;;;;;;;;4952903;28;20046;-67
2023/06/10 03:14:42;;;;;;;12.02;6.22;;;;;;;;;;4954867;28;20039;-67
2023/06/10 03:17:11;;;;;;;8.50;5.35;;;;;;;;;;4954848;28;20049;-67
2023/06/10 03:19:37;;;;;;;9.18;4.95;;;;;;;;;;4972381;28;20039;-67
2023/06/10 03:22:17;;;;;;;11.25;5.45;;;;;;;;;;4966087;28;20039;-67
2023/06/10 03:24:43;;;;;;;9.63;5.43;;;;;;;;;;4972198;28;20137;-67
2023/06/10 03:27:13;;;;;;;9.30;4.95;;;;;;;;;;4955122;28;20050;-67
2023/06/10 03:29:39;;;;;;;9.45;4.93;;;;;;;;;;4954672;28;20102;-67
2023/06/10 03:32:05;;;;;;;8.88;4.90;;;;;;;;;;4954521;28;20055;-67
2023/06/10 03:34:31;;;;;;;9.95;5.25;;;;;;;;;;4972142;28;20180;-67
2023/06/10 03:36:58;;;;;;;12.60;5.40;;;;;;;;;;4971799;28;20371;-67
2023/06/10 03:39:24;;;;;;;12.63;5.80;;;;;;;;;;4968478;28;20417;-67
2023/06/10 03:41:53;;;;;;;9.57;5.45;;;;;;;;;;4971316;28;20416;-67
2023/06/10 03:44:19;;;;;;;11.02;5.85;;;;;;;;;;4972435;28;20043;-67
2023/06/10 03:46:45;;;;;;;9.27;4.85;;;;;;;;;;4954363;28;20042;-67
2023/06/10 03:49:12;;;;;;;10.52;6.05;;;;;;;;;;4972061;28;20046;-67
2023/06/10 03:51:38;;;;;;;10.75;5.95;;;;;;;;;;4954675;28;20117;-67
2023/06/10 03:54:04;;;;;;;9.05;5.53;;;;;;;;;;4971752;28;20074;-67
2023/06/10 03:56:32;;;;;;;8.75;4.90;;;;;;;;;;4972191;28;20054;-67
2023/06/10 03:58:58;;;;;;;10.13;5.32;;;;;;;;;;4938125;28;20125;-67
2023/06/10 04:01:24;;;;;;;10.98;4.90;;;;;;;;;;4972037;28;20050;-67
2023/06/10 04:03:51;;;;;;;8.77;5.25;;;;;;;;;;4953376;28;20047;-67
2023/06/10 04:06:17;;;;;;;9.75;5.90;;;;;;;;;;4972204;28;20264;-67
2023/06/10 04:08:44;;;;;;;10.80;5.15;;;;;;;;;;4954071;28;20134;-67
2023/06/10 04:11:10;;;;;;;10.48;5.28;;;;;;;;;;4964930;28;20128;-67
2023/06/10 04:13:37;;;;;;;10.63;5.05;;;;;;;;;;4971296;28;20489;-67
2023/06/10 04:16:03;;;;;;;12.35;5.60;;;;;;;;;;4969832;28;20038;-67
2023/06/10 04:18:29;;;;;;;9.23;5.03;;;;;;;;;;4971555;28;20094;-67
2023/06/10 04:20:55;;;;;;;12.15;6.03;;;;;;;;;;4954097;28;20046;-67
2023/06/10 04:23:21;;;;;;;9.75;5.43;;;;;;;;;;4954547;28;20043;-67
2023/06/10 04:25:47;;;;;;;13.05;4.85;;;;;;;;;;4950706;28;20055;-67
2023/06/10 04:28:13;;;;;;;10.68;5.22;;;;;;;;;;4970514;28;20400;-67
2023/06/10 04:30:39;;;;;;;11.15;5.47;;;;;;;;;;4939082;28;20042;-67
2023/06/10 04:33:08;;;;;;;9.23;5.43;;;;;;;;;;4958889;28;20045;-67
2023/06/10 04:35:34;;;;;;;12.30;5.90;;;;;;;;;;4954355;28;20043;-67
2023/06/10 04:38:02;;;;;;;10.07;5.10;;;;;;;;;;4961111;28;20548;-67
2023/06/10 04:40:28;;;;;;;10.38;5.07;;;;;;;;;;4968802;28;20039;-67
2023/06/10 04:42:54;;;;;;;11.23;4.70;;;;;;;;;;4969073;28;21145;-67
2023/06/10 04:45:20;;;;;;;10.00;4.95;;;;;;;;;;4969506;28;20504;-67
2023/06/10 04:47:46;;;;;;;9.25;5.72;;;;;;;;;;4970520;28;20078;-67
2023/06/10 04:50:12;;;;;;;10.38;5.20;;;;;;;;;;4964060;28;20070;-67
2023/06/10 04:52:41;;;;;;;8.77;5.10;;;;;;;;;;4959591;28;20556;-66
2023/06/10 04:55:07;;;;;;;11.73;5.00;;;;;;;;;;4948791;28;20065;-67
2023/06/10 04:57:33;;;;;;;10.90;5.68;;;;;;;;;;4951400;28;20078;-67
2023/06/10 05:00:00;;;;;;;12.60;5.63;;;;;;;;;;4961199;28;20441;-67
2023/06/10 05:02:26;;;;;;;12.63;5.63;;;;;;;;;;4962558;28;20055;-67
2023/06/10 05:04:53;;;;;;;10.05;5.35;;;;;;;;;;4963940;28;20050;-67
2023/06/10 05:07:19;;;;;;;11.13;5.13;;;;;;;;;;4951258;28;20057;-67
2023/06/10 05:09:45;;;;;;;9.88;5.47;;;;;;;;;;4960435;28;20043;-67
2023/06/10 05:12:11;;;;;;;13.85;6.28;;;;;;;;;;4957366;28;20527;-67
2023/06/10 05:14:37;;;;;;;11.80;5.38;;;;;;;;;;4950786;28;20042;-67
2023/06/10 05:17:05;;;;;;;10.38;5.70;;;;;;;;;;4942808;28;20035;-67
2023/06/10 05:19:32;;;;;;;15.18;5.70;;;;;;;;;;4959268;28;20054;-67
2023/06/10 05:21:58;;;;;;;10.68;6.05;;;;;;;;;;4949397;28;20143;-67
2023/06/10 05:24:24;;;;;;;10.45;5.57;;;;;;;;;;4969943;28;20118;-67
2023/06/10 05:26:50;;;;;;;13.93;5.80;;;;;;;;;;4951876;28;20121;-67
2023/06/10 05:29:16;;;;;;;16.23;5.82;;;;;;;;;;4970853;28;20046;-67
2023/06/10 05:31:42;;;;;;;12.45;5.63;;;;;;;;;;4970381;28;20444;-67
2023/06/10 05:34:08;;;;;;;15.38;7.07;;;;;;;;;;4952931;28;20043;-67
2023/06/10 05:36:34;;;;;;;14.43;5.70;;;;;;;;;;4970758;28;20046;-67
2023/06/10 05:39:00;;;;;;;11.68;5.88;;;;;;;;;;4968491;28;20404;-67
2023/06/10 05:41:26;;;;;;;11.88;5.80;;;;;;;;;;4974616;28;20377;-67
2023/06/10 05:43:52;;;;;;;12.70;6.40;;;;;;;;;;4973789;28;20062;-67
2023/06/10 05:46:18;;;;;;;12.45;5.88;;;;;;;;;;4974711;28;20492;-67
2023/06/10 05:48:44;;;;;;;12.77;5.93;;;;;;;;;;4956750;28;20121;-67
2023/06/10 05:51:10;;;;;;;12.35;5.72;;;;;;;;;;4957342;28;20126;-67
2023/06/10 05:53:37;;;;;;;11.52;5.88;;;;;;;;;;4973719;28;20047;-67
2023/06/10 05:56:03;;;;;;;12.50;6.13;;;;;;;;;;4974662;28;20031;-67
2023/06/10 05:58:29;;;;;;;10.95;6.03;;;;;;;;;;4974172;28;20526;-67
2023/06/10 06:00:55;;;;;;;9.63;5.53;;;;;;;;;;4973715;28;20522;-67
2023/06/10 06:03:21;;;;;;;14.40;5.80;;;;;;;;;;4974140;28;20038;-67
2023/06/10 06:05:47;;;;;;;12.45;6.25;;;;;;;;;;4956414;28;20076;-67
2023/06/10 06:08:13;;;;;;;10.80;5.75;;;;;;;;;;4956493;28;20049;-67
2023/06/10 06:10:39;;;;;;;12.20;5.60;;;;;;;;;;4973255;28;20050;-67
2023/06/10 06:13:05;;;;;;;11.15;5.97;;;;;;;;;;4956238;28;20523;-67
2023/06/10 06:15:31;;;;;;;10.13;5.72;;;;;;;;;;4974272;28;20043;-67
2023/06/10 06:17:57;;;;;;;10.45;5.22;;;;;;;;;;4973837;28;20037;-67
2023/06/10 06:20:23;;;;;;;10.60;5.63;;;;;;;;;;4974254;28;20122;-67
2023/06/10 06:22:49;;;;;;;11.48;6.32;;;;;;;;;;4973246;28;20049;-67
2023/06/10 06:25:15;;;;;;;11.95;5.45;;;;;;;;;;4973664;28;20075;-67
2023/06/10 06:27:41;;;;;;;10.68;5.82;;;;;;;;;;4973479;28;20039;-67
2023/06/10 06:30:08;;;;;;;12.63;5.93;;;;;;;;;;4973885;28;20050;-67
2023/06/10 06:32:34;;;;;;;11.50;6.05;;;;;;;;;;4955813;28;20047;-67
2023/06/10 06:35:00;;;;;;;12.68;5.30;;;;;;;;;;4973383;28;20066;-67
2023/06/10 06:37:26;;;;;;;11.20;5.57;;;;;;;;;;4973884;28;20066;-67
2023/06/10 06:39:53;;;;;;;10.40;6.28;;;;;;;;;;4973174;28;20035;-67
2023/06/10 06:42:19;;;;;;;12.15;6.10;;;;;;;;;;4972835;28;20059;-67
2023/06/10 06:44:45;;;;;;;13.57;6.20;;;;;;;;;;4973308;28;20054;-67
2023/06/10 06:47:11;;;;;;;12.85;5.43;;;;;;;;;;4955896;28;20050;-68
2023/06/10 06:49:37;;;;;;;15.55;5.82;;;;;;;;;;4973019;28;20496;-67
2023/06/10 06:52:04;;;;;;;10.30;5.65;;;;;;;;;;4972469;28;20042;-67
2023/06/10 06:54:30;;;;;;;8.77;5.18;;;;;;;;;;4973519;28;20054;-67
2023/06/10 06:56:56;;;;;;;8.98;4.90;;;;;;;;;;4972035;28;20051;-67
2023/06/10 06:59:22;;;;;;;10.45;5.82;;;;;;;;;;4967996;28;20049;-67
2023/06/10 07:01:48;;;;;;;11.00;5.80;;;;;;;;;;4939508;28;20042;-68
2023/06/10 07:04:15;;;;;;;10.13;5.25;;;;;;;;;;4973061;28;20046;-67
2023/06/10 07:06:42;;;;;;;11.13;6.10;;;;;;;;;;4972958;28;20043;-67
2023/06/10 07:09:09;;;;;;;11.07;5.57;;;;;;;;;;4942916;28;20074;-67
2023/06/10 07:11:35;;;;;;;11.85;5.55;;;;;;;;;;4968592;28;20067;-67
2023/06/10 07:14:01;;;;;;;12.48;5.97;;;;;;;;;;4968924;28;20464;-67
2023/06/10 07:16:27;;;;;;;11.45;5.68;;;;;;;;;;4972976;28;20424;-67
2023/06/10 07:18:53;;;;;;;8.60;4.72;;;;;;;;;;4954643;28;20272;-67
2023/06/10 07:21:19;;;;;;;11.38;5.72;;;;;;;;;;4955138;28;20043;-67
2023/06/10 07:23:46;;;;;;;11.30;6.35;;;;;;;;;;4954029;28;20046;-67
2023/06/10 07:26:13;;;;;;;15.85;6.68;;;;;;;;;;4972894;28;20096;-67
2023/06/10 07:28:41;;;;;;;10.13;5.22;;;;;;;;;;4972573;28;20501;-68
2023/06/10 07:31:08;;;;;;;9.57;5.53;;;;;;;;;;4973080;28;20400;-67
2023/06/10 07:33:34;;;;;;;11.02;5.90;;;;;;;;;;4972248;28;20512;-67
2023/06/10 07:36:00;;;;;;;8.73;3.95;;;;;;;;;;4972669;28;20105;-66
2023/06/10 07:38:27;;;;;;;10.48;5.45;;;;;;;;;;4972495;28;20047;-66
2023/06/10 07:40:53;;;;;;;9.50;5.35;;;;;;;;;;4972724;28;20039;-66
2023/06/10 07:43:19;;;;;;;10.90;5.10;;;;;;;;;;4972207;28;20404;-66
2023/06/10 07:45:45;;;;;;;11.02;5.55;;;;;;;;;;4972385;28;20035;-66
2023/06/10 07:48:11;;;;;;;11.43;5.32;;;;;;;;;;4972293;28;20062;-66
2023/06/10 07:50:37;;;;;;;9.95;6.35;;;;;;;;;;4972234;28;20122;-66
2023/06/10 07:53:03;;;;;;;11.30;5.28;;;;;;;;;;4971682;28;20408;-66
2023/06/10 07:55:29;;;;;;;9.95;5.22;;;;;;;;;;4955068;28;20149;-66
2023/06/10 07:57:55;;;;;;;11.75;5.57;;;;;;;;;;4938727;28;20041;-66
2023/06/10 08:00:21;;;;;;;12.30;5.35;;;;;;;;;;4954527;28;20035;-66
2023/06/10 08:02:48;;;;;;;11.82;5.10;;;;;;;;;;4937060;28;20043;-66
2023/06/10 08:05:14;;;;;;;9.52;4.85;;;;;;;;;;4971955;28;20474;-66
2023/06/10 08:07:40;;;;;;;13.80;5.60;;;;;;;;;;4971870;28;20544;-66
2023/06/10 08:10:07;;;;;;;12.18;4.80;;;;;;;;;;4971830;28;20042;-66
2023/06/10 08:12:34;;;;;;;10.52;4.95;;;;;;;;;;4952913;28;20047;-66
2023/06/10 08:15:00;;;;;;;10.05;4.50;;;;;;;;;;4953872;28;20046;-66
2023/06/10 08:17:26;;;;;;;9.75;4.78;;;;;;;;;;4971094;28;20042;-66
2023/06/10 08:19:52;;;;;;;8.82;4.53;;;;;;;;;;4971477;28;20038;-66
2023/06/10 08:22:18;;;;;;;8.15;4.18;;;;;;;;;;4953260;28;20126;-66
2023/06/10 08:24:45;;;;;;;12.68;5.55;;;;;;;;;;4970718;28;20042;-66
2023/06/10 08:27:11;;;;;;;9.77;5.20;;;;;;;;;;4953900;28;20050;-66
2023/06/10 08:29:37;;;;;;;10.00;4.60;;;;;;;;;;4971871;28;20122;-66
2023/06/10 08:32:03;;;;;;;9.15;4.40;;;;;;;;;;4970682;28;20039;-66
2023/06/10 08:34:29;;;;;;;7.57;4.30;;;;;;;;;;4954290;28;20038;-66
2023/06/10 08:36:55;;;;;;;7.55;4.47;;;;;;;;;;4971012;28;20069;-66
2023/06/10 08:39:22;;;;;;;8.55;4.18;;;;;;;;;;4954353;28;20043;-67
2023/06/10 08:41:57;;;;;;;8.80;4.60;;;;;;;;;;4970532;28;20391;-70
2023/06/10 08:44:28;;;;;;;11.73;4.85;;;;;;;;;;4971419;28;20124;-70
2023/06/10 08:46:56;;;;;;;11.15;4.22;;;;;;;;;;4953816;28;20046;-69
2023/06/10 08:49:23;;;;;;;8.82;4.18;;;;;;;;;;4967539;28;20047;-70
2023/06/10 08:51:55;;;;;;;9.77;4.35;;;;;;;;;;4949290;28;20078;-70
2023/06/10 08:54:22;;;;;;;9.57;4.88;;;;;;;;;;4965413;28;20047;-70
2023/06/10 08:56:51;;;;;;;8.65;4.20;;;;;;;;;;4969148;28;20520;-70
2023/06/10 08:59:17;;;;;;;8.90;4.57;;;;;;;;;;4946343;28;20043;-70
2023/06/10 09:01:45;;;;;;;9.02;5.40;;;;;;;;;;4939442;28;20051;-71
2023/06/10 09:04:11;;;;;;;9.20;4.40;;;;;;;;;;4946563;28;20130;-70
2023/06/10 09:06:38;;;;;;;9.80;4.93;;;;;;;;;;4968660;28;20050;-70
2023/06/10 09:09:05;;;;;;;7.78;4.60;;;;;;;;;;4959168;28;20042;-69
2023/06/10 09:11:32;;;;;;;9.20;4.50;;;;;;;;;;4948037;28;20038;-69
2023/06/10 09:13:58;;;;;;;9.18;4.20;;;;;;;;;;4957325;28;20043;-69
2023/06/10 09:16:25;;;;;;;7.80;4.45;;;;;;;;;;4946768;28;20035;-69
2023/06/10 09:18:54;;;;;;;8.40;4.82;;;;;;;;;;4956306;28;20118;-69
2023/06/10 09:21:24;;;;;;;9.52;4.22;;;;;;;;;;4949675;28;20058;-69
2023/06/10 09:23:51;;;;;;;8.55;4.75;;;;;;;;;;4952735;28;20039;-68
2023/06/10 09:26:17;;;;;;;6.85;4.00;;;;;;;;;;4967655;28;20508;-69
2023/06/10 09:28:49;;;;;;;9.45;4.00;;;;;;;;;;4946073;28;20043;-71
2023/06/10 09:31:21;;;;;;;10.07;4.45;;;;;;;;;;4953192;28;20210;-69
2023/06/10 09:33:48;;;;;;;8.27;4.60;;;;;;;;;;4948219;28;20126;-68
2023/06/10 09:36:22;;;;;;;11.38;5.35;;;;;;;;;;4964578;28;20122;-71
2023/06/10 09:38:50;;;;;;;8.10;4.25;;;;;;;;;;4960885;28;20114;-71
2023/06/10 09:41:16;;;;;;;10.23;3.97;;;;;;;;;;4945310;28;20050;-71
2023/06/10 09:43:44;;;;;;;9.63;4.15;;;;;;;;;;4939393;28;20121;-71
2023/06/10 09:46:17;;;;;;;8.45;4.00;;;;;;;;;;4946048;28;20063;-71
2023/06/10 09:48:44;;;;;;;10.45;4.57;;;;;;;;;;4961581;28;20512;-71
2023/06/10 09:51:11;;;;;;;8.65;4.15;;;;;;;;;;4939204;28;20404;-71
2023/06/10 09:53:37;;;;;;;7.72;4.13;;;;;;;;;;4950885;28;20462;-70
2023/06/10 09:56:03;;;;;;;6.57;3.85;;;;;;;;;;4943620;28;20101;-69
2023/06/10 09:58:37;;;;;;;8.63;4.10;;;;;;;;;;4964444;28;20050;-69
2023/06/10 10:01:10;;;;;;;10.05;3.97;;;;;;;;;;4942140;28;20059;-69
2023/06/10 10:03:46;;;;;;;9.97;4.60;;;;;;;;;;4936003;28;20126;-70
2023/06/10 10:06:13;;;;;;;8.05;3.72;;;;;;;;;;4941818;28;20290;-69
2023/06/10 10:08:39;;;;;;;8.98;3.92;;;;;;;;;;4936825;29;20047;-70
2023/06/10 10:11:05;;;;;;;7.25;4.13;;;;;;;;;;4954124;28;20473;-69
2023/06/10 10:13:34;;;;;;;8.60;3.85;;;;;;;;;;4960338;28;20051;-70
2023/06/10 10:16:00;;;;;;;6.18;3.78;;;;;;;;;;4933189;28;20062;-69
2023/06/10 10:18:30;;;;;;;10.70;4.03;;;;;;;;;;4945116;28;20515;-69
2023/06/10 10:20:57;;;;;;;12.55;4.68;;;;;;;;;;4936210;28;20122;-69
2023/06/10 10:23:41;;;;;;;7.22;4.07;;;;;;;;;;4959895;28;20077;-69
2023/06/10 10:26:10;;;;;;;6.43;3.60;;;;;;;;;;4947212;28;20054;-69
2023/06/10 10:28:49;;;;;;;9.25;4.03;;;;;;;;;;4953595;28;20105;-68
2023/06/10 10:31:18;;;;;;;7.45;3.58;;;;;;;;;;4970179;28;20038;-69
2023/06/10 10:33:58;;;;;;;7.72;3.33;;;;;;;;;;4963694;28;20076;-69
2023/06/10 10:36:24;;;;;;;7.57;3.70;;;;;;;;;;4950993;28;20051;-69
2023/06/10 10:38:50;;;;;;;7.38;3.50;;;;;;;;;;4956648;28;20452;-69
2023/06/10 10:41:18;;;;;;;6.78;3.00;;;;;;;;;;4956540;28;20408;-69
2023/06/10 10:43:45;;;;;;;7.28;3.55;;;;;;;;;;4956052;28;20043;-69
2023/06/10 10:46:18;;;;;;;7.70;4.00;;;;;;;;;;4956149;28;20050;-69
2023/06/10 10:48:45;;;;;;;8.27;3.95;;;;;;;;;;4974264;28;20038;-69
2023/06/10 10:51:11;;;;;;;6.72;3.75;;;;;;;;;;4974019;28;20045;-69
2023/06/10 10:53:38;;;;;;;7.35;3.83;;;;;;;;;;4957320;28;20047;-69
2023/06/10 10:56:30;;;;;;;7.43;4.40;;;;;;;;;;4935295;28;20058;-69
2023/06/10 10:59:09;;;;;;;8.23;4.20;;;;;;;;;;4956141;28;20094;-70
2023/06/10 11:01:46;;;;;;;7.07;3.70;;;;;;;;;;4973742;28;20455;-69
2023/06/10 11:04:13;;;;;;;8.02;3.67;;;;;;;;;;4973501;28;20096;-70
2023/06/10 11:06:41;;;;;;;7.38;3.55;;;;;;;;;;4973669;28;20047;-69
2023/06/10 11:09:28;;;;;;;6.80;3.60;;;;;;;;;;4975450;28;20464;-69
2023/06/10 11:11:57;;;;;;;7.35;3.70;;;;;;;;;;4973076;28;20043;-69
2023/06/10 11:14:28;;;;;;;6.95;3.47;;;;;;;;;;4973772;28;20050;-70
2023/06/10 11:17:00;;;;;;;7.90;3.60;;;;;;;;;;4975327;28;20404;-69
2023/06/10 11:19:37;;;;;;;6.97;3.40;;;;;;;;;;4973572;28;20089;-69
2023/06/10 11:22:04;;;;;;;6.60;3.25;;;;;;;;;;4939348;28;20120;-70
2023/06/10 11:24:32;;;;;;;6.53;3.40;;;;;;;;;;4939641;28;20042;-69
2023/06/10 11:27:18;;;;;;;7.53;3.72;;;;;;;;;;4955151;28;20066;-70
2023/06/10 11:30:07;;;;;;;8.80;3.80;;;;;;;;;;4972495;28;20043;-70
2023/06/10 11:32:39;;;;;;;8.48;3.90;;;;;;;;;;4972730;28;20073;-69
2023/06/10 11:35:08;;;;;;;10.23;4.13;;;;;;;;;;4973051;28;20170;-69
2023/06/10 11:37:36;;;;;;;6.03;3.08;;;;;;;;;;4955487;28;20050;-69
2023/06/10 11:40:03;;;;;;;6.55;3.47;;;;;;;;;;4959414;28;20038;-69
2023/06/10 11:42:31;;;;;;;6.70;3.00;;;;;;;;;;4955057;28;20531;-70
2023/06/10 11:45:02;;;;;;;6.30;3.00;;;;;;;;;;4951644;28;20053;-70
2023/06/10 11:47:31;;;;;;;6.60;2.83;;;;;;;;;;4973061;28;20056;-70
2023/06/10 11:49:58;;;;;;;6.32;3.47;;;;;;;;;;4972270;28;20049;-71
2023/06/10 11:52:31;;;;;;;7.25;3.85;;;;;;;;;;4954633;28;20069;-70
2023/06/10 11:54:59;;;;;;;9.43;4.10;;;;;;;;;;4970909;28;20475;-71
2023/06/10 11:57:26;;;;;;;8.07;4.25;;;;;;;;;;4967897;28;20094;-71
2023/06/10 11:59:53;;;;;;;6.55;3.60;;;;;;;;;;4953645;28;20473;-71
2023/06/10 12:02:22;;;;;;;10.57;4.57;;;;;;;;;;4954539;28;20121;-70
2023/06/10 12:04:48;;;;;;;8.85;4.35;;;;;;;;;;4955043;28;20118;-70
2023/06/10 12:07:21;;;;;;;8.88;4.15;;;;;;;;;;4971991;28;20061;-70
2023/06/10 12:09:48;;;;;;;7.82;3.90;;;;;;;;;;4972285;28;20118;-71
2023/06/10 12:12:15;;;;;;;10.82;4.43;;;;;;;;;;4971977;28;20057;-71
2023/06/10 12:14:57;;;;;;;13.88;4.57;;;;;;;;;;4954813;28;20047;-71
2023/06/10 12:17:33;;;;;;;8.30;4.60;;;;;;;;;;4972262;28;20039;-71
2023/06/10 12:20:12;;;;;;;10.90;4.97;;;;;;;;;;4954830;28;20041;-71
2023/06/10 12:22:38;;;;;;;9.15;4.50;;;;;;;;;;4938407;28;20046;-70
2023/06/10 12:25:07;;;;;;;7.95;4.22;;;;;;;;;;4954810;28;20093;-70
2023/06/10 12:27:34;;;;;;;12.25;5.28;;;;;;;;;;4972117;28;20108;-70
2023/06/10 12:30:05;;;;;;;8.70;4.72;;;27.10;99.90;;;;;;4971521;28;20081;-70
2023/06/10 12:32:46;;;;;;;10.57;5.00;;;;;;;;;;4954353;28;20133;-70
2023/06/10 12:35:14;;;;;;;8.02;4.03;;;;;;;;;;4952125;28;20131;-70
2023/06/10 12:37:41;;;;;;;13.25;5.15;;;;;;;;;;4972064;28;20478;-73
2023/06/10 12:40:10;;;;;;;10.07;4.45;;;29.80;99.90;;;;;;4971714;28;20047;-70
2023/06/10 12:42:37;;;;;;;8.48;4.50;;;32.20;99.90;;;;;;4971249;28;20423;-70
2023/06/10 12:45:03;;;;;;;10.98;4.38;;;34.70;99.90;;;;;;4938331;28;20049;-71
2023/06/10 12:47:39;;;;;;;12.18;4.43;;;38.90;95.40;;;;;;4971527;28;20039;-71
2023/06/10 12:50:06;;;;;;;9.55;4.45;;;38.60;98.40;;;;;;4948637;28;20121;-71
2023/06/10 12:52:32;;;;;;;9.65;4.22;;;40.50;69.90;;;;;;4954025;28;20074;-71
2023/06/10 12:54:58;;;;;;;12.20;5.03;;;41.60;38.60;;;;;;4953988;28;20050;-71
2023/06/10 12:57:24;;;;;;;9.57;4.85;;;43.00;6.80;;;;;;4954099;28;20488;-71
2023/06/10 12:59:52;;;;;;;13.10;4.50;;;44.10;1.00;;;;;;4953933;28;20047;-71
2023/06/10 13:02:23;;;;;;;11.30;6.55;;;45.00;1.00;;;;;;4953689;28;20046;-71
2023/06/10 13:04:52;;;;;;;9.60;3.92;;;45.50;1.00;;;;;;4971236;28;20046;-71
2023/06/10 13:07:18;;;;;;;8.57;4.10;;;46.40;1.00;;;;;;4961001;28;20035;-71
2023/06/10 13:09:43;;;;;;;10.13;3.97;;;46.80;1.00;;;;;;4966086;28;20038;-71
2023/06/10 13:12:10;;;;;;;9.55;4.03;;;47.10;1.00;;;;;;4949794;28;20042;-71
2023/06/10 13:14:37;;;;;;;8.70;3.80;;;47.40;1.00;;;;;;4947822;28;20049;-71
2023/06/10 13:17:06;;;;;;;8.98;3.95;;;47.60;1.00;;;;;;4946454;28;20039;-71
2023/06/10 13:19:33;;;;;;;10.32;3.50;;;47.70;1.00;;;;;;4947358;28;20077;-72
2023/06/10 13:21:58;;;;;;;10.27;4.43;;;48.10;1.00;;;;;;4943040;28;20038;-72
2023/06/10 13:24:24;;;;;;;10.70;4.47;;;48.40;1.00;;;;;;4949705;28;20264;-72
2023/06/10 13:26:50;;;;;;;8.07;3.92;;;48.80;1.00;;;;;;4969499;28;20034;-72
2023/06/10 13:29:15;;;;;;;11.10;3.97;;;49.00;1.00;;;;;;4969056;28;20373;-72
2023/06/10 13:31:42;;;;;;;9.93;3.88;;;49.60;1.00;;;;;;4936278;28;20042;-72
2023/06/10 13:34:08;;;;;;;7.45;3.42;;;50.00;1.00;;;;;;4966342;28;20054;-72
2023/06/10 13:36:33;;;;;;;9.52;3.90;;;50.20;1.00;;;;;;4948700;28;20039;-73
2023/06/10 13:38:59;;;;;;;10.88;3.60;;;50.50;1.00;;;;;;4970363;28;20390;-72
2023/06/10 13:41:27;;;;;;;8.10;3.40;;;51.00;1.00;;;;;;4946122;28;20053;-72
2023/06/10 13:43:53;;;;;;;9.32;3.38;;;50.80;1.00;;;;;;4951815;28;20118;-72
2023/06/10 13:46:21;;;;;;;8.38;3.63;;;50.90;1.00;;;;;;4970603;28;20126;-72
2023/06/10 13:48:47;;;;;;;9.18;3.25;;;51.20;1.00;;;;;;4969500;28;20043;-72
2023/06/10 13:51:12;;;;;;;10.85;3.58;;;51.00;1.00;;;;;;4969003;28;20511;-72
2023/06/10 13:53:38;;;;;;;8.68;3.72;;;51.30;1.00;;;;;;4969682;28;20051;-72
2023/06/10 13:56:04;;;;;;;8.38;3.28;;;51.10;1.00;;;;;;4947503;28;20047;-72
2023/06/10 13:58:30;;;;;;;9.40;3.15;;;51.10;99.90;;;;;;4945655;28;20039;-72
2023/06/10 14:00:56;;;;;;;9.32;3.28;;;51.20;99.90;;;;;;4967161;28;20070;-72
2023/06/10 14:03:21;;;;;;;9.43;3.40;;;51.20;99.90;;;;;;4951013;28;20088;-73
2023/06/10 14:05:47;;;;;;;7.75;3.15;;;51.30;99.90;;;;;;4969093;28;20027;-73
2023/06/10 14:08:13;;;;;;;7.72;3.20;;;51.90;99.90;;;;;;4956379;28;20371;-72
2023/06/10 14:10:39;;;;;;;9.07;3.10;;;52.20;99.90;;;;;;4972569;28;20129;-73
2023/06/10 14:13:05;;;;;;;7.43;2.95;;;52.10;99.90;;;;;;4962670;28;20117;-72
2023/06/10 14:15:32;;;;;;;9.02;2.92;;;52.50;99.90;;;;;;4951627;28;20038;-72
2023/06/10 14:17:57;;;;;;;8.35;2.90;;;51.80;99.90;;;;;;4951313;28;20039;-73
2023/06/10 14:20:25;;;;;;;7.85;3.20;;;51.90;99.90;;;;;;4956340;28;20047;-72
2023/06/10 14:22:51;;;;;;;7.50;3.20;;;52.10;99.90;;;;;;4931490;28;20046;-73